createdAt,value
2023-03-07T00:01:59.565Z,23.32
2023-03-07T00:04:29.512Z,23.29
2023-03-07T00:06:59.962Z,23.26
2023-03-07T00:09:30.957Z,23.25
2023-03-07T00:12:01.509Z,23.25
2023-03-07T00:14:29.275Z,23.20
2023-03-07T00:16:56.773Z,23.13
2023-03-07T00:19:26.778Z,23.07
2023-03-07T00:21:54.042Z,23.07
2023-03-07T00:24:21.627Z,23.06
2023-03-07T00:26:49.471Z,23.05
2023-03-07T00:29:17.084Z,23.07
2023-03-07T00:31:49.332Z,23.07
2023-03-07T00:34:19.362Z,23.05
2023-03-07T00:36:49.147Z,23.08
2023-03-07T00:39:17.080Z,23.03
2023-03-07T00:41:44.583Z,23.02
2023-03-07T00:44:14.564Z,23.01
2023-03-07T00:46:44.581Z,23.04
2023-03-07T00:49:16.571Z,23.02
2023-03-07T00:51:46.563Z,23.02
2023-03-07T00:54:14.632Z,23.02
2023-03-07T00:56:44.686Z,23.06
2023-03-07T00:59:15.203Z,23.05
2023-03-07T01:01:45.960Z,23.08
2023-03-07T01:04:16.656Z,23.18
2023-03-07T01:06:44.316Z,23.21
2023-03-07T01:09:12.250Z,23.17
2023-03-07T01:11:45.706Z,23.10
2023-03-07T01:14:16.221Z,23.07
2023-03-07T01:16:43.804Z,23.15
2023-03-07T01:19:14.472Z,23.15
2023-03-07T01:21:46.701Z,23.12
2023-03-07T01:24:18.140Z,23.23
2023-03-07T01:26:49.259Z,23.15
2023-03-07T01:29:17.108Z,23.13
2023-03-07T01:31:47.167Z,23.12
2023-03-07T01:34:14.953Z,23.12
2023-03-07T01:36:45.755Z,23.18
2023-03-07T01:39:17.024Z,23.08
2023-03-07T01:41:55.757Z,23.05
2023-03-07T01:44:27.563Z,23.07
2023-03-07T01:46:58.077Z,23.02
2023-03-07T01:49:35.324Z,23.05
2023-03-07T01:52:10.302Z,23.05
2023-03-07T01:54:51.116Z,23.04
2023-03-07T01:57:34.256Z,23.01
2023-03-07T02:00:08.701Z,23.02
2023-03-07T02:03:01.871Z,23.04
2023-03-07T02:05:38.259Z,23.09
2023-03-07T02:08:21.325Z,23.14
2023-03-07T02:10:52.334Z,23.10
2023-03-07T02:13:25.586Z,23.12
2023-03-07T02:15:57.041Z,23.08
2023-03-07T02:18:32.865Z,23.04
2023-03-07T02:21:42.314Z,23.00
2023-03-07T02:24:25.232Z,23.03
2023-03-07T02:26:57.835Z,22.98
2023-03-07T02:29:28.640Z,22.94
2023-03-07T02:32:01.320Z,22.94
2023-03-07T02:34:32.305Z,22.96
2023-03-07T02:37:32.655Z,22.91
2023-03-07T02:40:10.226Z,22.95
2023-03-07T02:42:49.045Z,22.91
2023-03-07T02:45:22.005Z,22.90
2023-03-07T02:47:54.140Z,22.93
2023-03-07T02:50:23.860Z,22.92
2023-03-07T02:52:58.369Z,22.96
2023-03-07T02:55:28.598Z,22.94
2023-03-07T02:58:05.805Z,22.95
2023-03-07T03:00:37.847Z,22.99
2023-03-07T03:03:05.989Z,23.03
2023-03-07T03:05:36.085Z,23.04
2023-03-07T03:08:06.857Z,23.03
2023-03-07T03:10:36.663Z,23.01
2023-03-07T03:13:04.380Z,23.00
2023-03-07T03:15:32.394Z,23.01
2023-03-07T03:18:05.916Z,23.14
2023-03-07T03:20:36.339Z,23.11
2023-03-07T03:23:04.728Z,23.06
2023-03-07T03:25:38.665Z,23.00
2023-03-07T03:28:13.390Z,22.95
2023-03-07T03:30:56.448Z,22.93
2023-03-07T03:33:29.233Z,22.88
2023-03-07T03:35:58.944Z,22.88
2023-03-07T03:38:33.422Z,22.89
2023-03-07T03:41:12.633Z,22.88
2023-03-07T03:43:40.819Z,22.90
2023-03-07T03:46:11.530Z,22.89
2023-03-07T03:48:42.611Z,22.86
2023-03-07T03:51:15.519Z,22.83
2023-03-07T03:53:48.013Z,22.90
2023-03-07T03:56:19.044Z,22.89
2023-03-07T03:58:53.400Z,22.90
2023-03-07T04:01:23.553Z,22.89
2023-03-07T04:03:53.261Z,22.99
2023-03-07T04:06:29.144Z,22.90
2023-03-07T04:09:00.286Z,22.86
2023-03-07T04:11:31.403Z,22.85
2023-03-07T04:14:04.215Z,22.92
2023-03-07T04:16:37.655Z,22.90
2023-03-07T04:19:13.108Z,22.90
2023-03-07T04:21:54.794Z,22.91
2023-03-07T04:24:22.790Z,23.01
2023-03-07T04:26:56.203Z,22.90
2023-03-07T04:29:26.801Z,22.89
2023-03-07T04:32:07.338Z,22.88
2023-03-07T04:34:36.575Z,22.86
2023-03-07T04:37:07.745Z,22.80
2023-03-07T04:39:37.767Z,22.80
2023-03-07T04:42:06.419Z,22.84
2023-03-07T04:44:38.233Z,22.80
2023-03-07T04:47:06.393Z,22.88
2023-03-07T04:49:36.911Z,22.86
2023-03-07T04:52:14.841Z,22.87
2023-03-07T04:54:49.200Z,22.82
2023-03-07T04:57:19.043Z,22.85
2023-03-07T04:59:46.692Z,22.86
2023-03-07T05:02:17.580Z,22.83
2023-03-07T05:04:47.873Z,22.81
2023-03-07T05:07:19.245Z,22.94
2023-03-07T05:09:46.972Z,22.86
2023-03-07T05:12:15.358Z,22.99
2023-03-07T05:14:43.150Z,23.00
2023-03-07T05:17:11.528Z,22.94
2023-03-07T05:19:44.096Z,22.95
2023-03-07T05:22:11.381Z,22.94
2023-03-07T05:24:41.987Z,22.90
2023-03-07T05:27:11.991Z,22.85
2023-03-07T05:29:39.742Z,22.78
2023-03-07T05:32:08.022Z,22.75
2023-03-07T05:34:41.807Z,22.74
2023-03-07T05:37:15.226Z,22.76
2023-03-07T05:39:42.968Z,22.72
2023-03-07T05:42:13.403Z,22.72
2023-03-07T05:44:44.724Z,22.73
2023-03-07T05:47:12.437Z,22.71
2023-03-07T05:49:42.648Z,22.69
2023-03-07T05:52:13.432Z,22.72
2023-03-07T05:54:41.496Z,22.69
2023-03-07T05:57:17.866Z,22.70
2023-03-07T05:59:45.660Z,22.71
2023-03-07T06:02:16.984Z,22.70
2023-03-07T06:04:46.861Z,22.68
2023-03-07T06:07:19.838Z,22.84
2023-03-07T06:09:50.325Z,22.80
2023-03-07T06:12:18.298Z,22.80
2023-03-07T06:14:48.994Z,22.90
2023-03-07T06:17:16.639Z,22.90
2023-03-07T06:19:46.745Z,22.97
2023-03-07T06:22:14.168Z,22.96
2023-03-07T06:24:44.412Z,22.90
2023-03-07T06:27:18.152Z,22.90
2023-03-07T06:29:48.766Z,23.06
2023-03-07T06:32:16.978Z,23.12
2023-03-07T06:34:46.983Z,23.10
2023-03-07T06:37:23.145Z,23.04
2023-03-07T06:39:56.654Z,22.97
2023-03-07T06:42:32.690Z,23.09
2023-03-07T06:45:06.135Z,23.01
2023-03-07T06:47:37.283Z,23.09
2023-03-07T06:50:09.202Z,23.12
2023-03-07T06:52:40.622Z,23.22
2023-03-07T06:55:22.015Z,23.25
2023-03-07T06:57:52.652Z,23.21
2023-03-07T07:00:29.112Z,23.17
2023-03-07T07:03:00.884Z,23.37
2023-03-07T07:05:35.850Z,23.27
2023-03-07T07:08:07.017Z,23.53
2023-03-07T07:10:37.367Z,23.65
2023-03-07T07:13:12.545Z,23.90
2023-03-07T07:15:45.041Z,23.82
2023-03-07T07:18:14.024Z,23.90
2023-03-07T07:20:55.799Z,24.20
2023-03-07T07:23:32.494Z,24.12
2023-03-07T07:26:09.912Z,24.27
2023-03-07T07:28:46.567Z,24.69
2023-03-07T07:31:17.433Z,24.61
2023-03-07T07:33:46.672Z,24.62
2023-03-07T07:36:17.983Z,24.39
2023-03-07T07:38:55.343Z,24.51
2023-03-07T07:41:26.523Z,24.39
2023-03-07T07:43:57.622Z,24.88
2023-03-07T07:46:34.501Z,24.75
2023-03-07T07:49:03.927Z,25.28
2023-03-07T07:51:31.882Z,24.92
2023-03-07T07:54:03.147Z,25.11
2023-03-07T07:56:36.755Z,25.67
2023-03-07T07:59:14.132Z,25.66
2023-03-07T08:01:44.711Z,25.69
2023-03-07T08:04:15.185Z,25.43
2023-03-07T08:06:47.646Z,26.14
2023-03-07T08:09:18.440Z,26.26
2023-03-07T08:11:48.708Z,25.95
2023-03-07T08:14:22.535Z,25.79
2023-03-07T08:16:57.780Z,25.90
2023-03-07T08:19:28.926Z,25.54
2023-03-07T08:21:59.656Z,25.27
2023-03-07T08:24:40.672Z,25.33
2023-03-07T08:27:11.758Z,25.24
2023-03-07T08:29:39.638Z,24.74
2023-03-07T08:32:12.100Z,24.73
2023-03-07T08:34:41.298Z,24.60
2023-03-07T08:37:15.548Z,24.81
2023-03-07T08:39:43.565Z,24.71
2023-03-07T08:42:11.435Z,24.80
2023-03-07T08:44:47.505Z,24.84
2023-03-07T08:47:21.175Z,25.00
2023-03-07T08:49:56.146Z,24.85
2023-03-07T08:52:26.597Z,25.17
2023-03-07T08:54:58.043Z,25.32
2023-03-07T08:57:25.853Z,25.08
2023-03-07T08:59:53.624Z,25.01
2023-03-07T09:02:23.972Z,25.12
2023-03-07T09:04:56.483Z,25.67
2023-03-07T09:07:29.993Z,25.77
2023-03-07T09:10:07.735Z,26.32
2023-03-07T09:12:42.588Z,26.71
2023-03-07T09:15:16.094Z,26.60
2023-03-07T09:17:43.753Z,27.16
2023-03-07T09:20:17.719Z,27.32
2023-03-07T09:22:51.846Z,27.24
2023-03-07T09:25:22.236Z,27.14
2023-03-07T09:27:55.958Z,27.08
2023-03-07T09:30:28.546Z,26.72
2023-03-07T09:32:58.351Z,26.76
2023-03-07T09:35:34.631Z,26.92
2023-03-07T09:38:05.454Z,27.06
2023-03-07T09:40:34.218Z,27.37
2023-03-07T09:43:21.975Z,27.83
2023-03-07T09:46:21.014Z,27.45
2023-03-07T09:49:41.250Z,27.58
2023-03-07T09:52:26.899Z,27.39
2023-03-07T09:55:19.369Z,27.43
2023-03-07T09:58:07.197Z,27.42
2023-03-07T10:00:42.797Z,27.46
2023-03-07T10:03:31.668Z,27.44
2023-03-07T10:06:23.239Z,27.05
2023-03-07T10:09:00.874Z,26.82
2023-03-07T10:11:34.341Z,26.79
2023-03-07T10:14:26.874Z,26.85
2023-03-07T10:17:28.155Z,26.97
2023-03-07T10:20:35.921Z,27.02
2023-03-07T10:23:18.611Z,26.86
2023-03-07T10:26:12.231Z,26.97
2023-03-07T10:28:44.100Z,26.66
2023-03-07T10:31:29.289Z,26.66
2023-03-07T10:33:58.652Z,26.82
2023-03-07T10:36:42.371Z,26.72
2023-03-07T10:39:48.977Z,26.92
2023-03-07T10:42:24.978Z,27.03
2023-03-07T10:44:56.114Z,26.83
2023-03-07T10:47:32.166Z,26.81
2023-03-07T10:50:29.215Z,26.81
2023-03-07T10:52:59.108Z,26.91
2023-03-07T10:55:38.677Z,26.57
2023-03-07T10:58:23.435Z,26.57
2023-03-07T11:01:20.914Z,26.51
2023-03-07T11:04:22.645Z,26.63
2023-03-07T11:07:04.143Z,26.50
2023-03-07T11:09:37.789Z,26.55
2023-03-07T11:12:05.345Z,26.62
2023-03-07T11:14:51.462Z,26.58
2023-03-07T11:17:27.688Z,26.61
2023-03-07T11:19:59.004Z,26.45
2023-03-07T11:22:36.753Z,26.34
2023-03-07T11:25:14.509Z,26.25
2023-03-07T11:27:55.846Z,26.10
2023-03-07T11:30:29.874Z,25.88
2023-03-07T11:33:20.041Z,25.91
2023-03-07T11:36:04.810Z,25.69
2023-03-07T11:38:38.472Z,25.68
2023-03-07T11:41:38.416Z,25.68
2023-03-07T11:44:30.030Z,25.45
2023-03-07T11:47:06.890Z,25.55
2023-03-07T11:49:53.191Z,25.53
2023-03-07T11:53:01.900Z,25.38
2023-03-07T11:55:36.150Z,25.22
2023-03-07T11:58:44.454Z,25.13
2023-03-07T12:01:17.886Z,25.09
2023-03-07T12:04:21.051Z,25.04
2023-03-07T12:07:06.812Z,24.98
2023-03-07T12:09:45.665Z,24.98
2023-03-07T12:12:50.613Z,24.87
2023-03-07T12:15:31.248Z,25.12
2023-03-07T12:18:20.076Z,25.21
2023-03-07T12:21:13.497Z,24.97
2023-03-07T12:23:55.680Z,25.12
2023-03-07T12:26:37.657Z,25.17
2023-03-07T12:29:33.111Z,25.05
2023-03-07T12:32:12.495Z,24.99
2023-03-07T12:34:51.186Z,24.98
2023-03-07T12:37:28.491Z,25.00
2023-03-07T12:40:06.966Z,24.94
2023-03-07T12:42:55.752Z,25.06
2023-03-07T12:45:43.494Z,25.08
2023-03-07T12:48:24.905Z,25.00
2023-03-07T12:51:19.990Z,25.01
2023-03-07T12:54:08.813Z,24.94
2023-03-07T12:56:54.489Z,25.01
2023-03-07T12:59:29.657Z,24.95
2023-03-07T13:02:08.496Z,24.99
2023-03-07T13:04:42.754Z,24.96
2023-03-07T13:07:21.258Z,24.92
2023-03-07T13:09:55.019Z,24.95
2023-03-07T13:12:35.157Z,25.00
2023-03-07T13:15:08.603Z,24.96
2023-03-07T13:17:36.553Z,24.97
2023-03-07T13:20:19.190Z,25.01
2023-03-07T13:22:46.728Z,25.01
2023-03-07T13:25:22.505Z,24.99
2023-03-07T13:27:53.691Z,24.99
2023-03-07T13:30:27.044Z,25.01
2023-03-07T13:33:07.478Z,25.00
2023-03-07T13:35:42.672Z,24.93
2023-03-07T13:38:41.507Z,24.86
2023-03-07T13:42:06.114Z,24.89
2023-03-07T13:44:46.666Z,24.86
2023-03-07T13:47:46.450Z,24.88
2023-03-07T13:50:43.390Z,24.95
2023-03-07T13:53:20.180Z,24.92
2023-03-07T13:56:00.405Z,24.89
2023-03-07T13:58:38.611Z,25.00
2023-03-07T14:01:30.469Z,24.94
2023-03-07T14:04:13.901Z,24.86
2023-03-07T14:06:53.417Z,24.91
2023-03-07T14:09:31.540Z,24.93
2023-03-07T14:12:15.375Z,24.87
2023-03-07T14:14:55.206Z,24.85
2023-03-07T14:17:25.962Z,24.86
2023-03-07T14:20:22.173Z,24.89
2023-03-07T14:23:27.304Z,24.91
2023-03-07T14:26:12.701Z,24.97
2023-03-07T14:29:00.590Z,24.92
2023-03-07T14:31:57.819Z,24.87
2023-03-07T14:34:39.218Z,24.90
2023-03-07T14:37:19.717Z,24.91
2023-03-07T14:40:00.310Z,24.79
2023-03-07T14:43:06.408Z,24.83
2023-03-07T14:45:49.966Z,24.91
2023-03-07T14:48:29.582Z,24.86
2023-03-07T14:51:02.005Z,24.92
2023-03-07T14:53:34.195Z,24.90
2023-03-07T14:56:06.985Z,24.91
2023-03-07T14:58:53.835Z,24.83
2023-03-07T15:01:22.430Z,24.91
2023-03-07T15:03:59.178Z,24.89
2023-03-07T15:06:31.071Z,24.90
2023-03-07T15:09:00.646Z,24.92
2023-03-07T15:11:37.476Z,24.94
2023-03-07T15:14:27.250Z,24.89
2023-03-07T15:17:03.791Z,24.87
2023-03-07T15:19:50.116Z,24.80
2023-03-07T15:22:27.868Z,24.77
2023-03-07T15:24:59.525Z,24.91
2023-03-07T15:27:35.156Z,24.96
2023-03-07T15:30:30.167Z,24.90
2023-03-07T15:33:09.692Z,24.90
2023-03-07T15:35:42.497Z,24.90
2023-03-07T15:38:23.323Z,24.95
2023-03-07T15:40:51.222Z,24.87
2023-03-07T15:43:25.159Z,24.92
2023-03-07T15:46:06.029Z,24.90
2023-03-07T15:48:54.342Z,24.86
2023-03-07T15:51:29.999Z,24.95
2023-03-07T15:54:21.881Z,24.88
2023-03-07T15:56:59.592Z,24.77
2023-03-07T15:59:43.106Z,24.90
2023-03-07T16:03:14.836Z,24.81
2023-03-07T16:05:49.649Z,24.87
2023-03-07T16:08:20.604Z,24.88
2023-03-07T16:11:00.343Z,24.85
2023-03-07T16:13:44.448Z,24.88
2023-03-07T16:16:25.807Z,25.04
2023-03-07T16:18:57.542Z,24.84
2023-03-07T16:21:31.676Z,24.85
2023-03-07T16:24:00.290Z,24.86
2023-03-07T16:26:28.439Z,24.90
2023-03-07T16:29:07.515Z,24.88
2023-03-07T16:31:38.199Z,24.88
2023-03-07T16:34:12.891Z,24.76
2023-03-07T16:36:43.196Z,24.80
2023-03-07T16:39:14.495Z,24.93
2023-03-07T16:41:48.543Z,24.99
2023-03-07T16:44:21.268Z,25.01
2023-03-07T16:47:04.013Z,24.89
2023-03-07T16:49:40.378Z,24.89
2023-03-07T16:52:13.242Z,25.04
2023-03-07T16:54:44.150Z,24.83
2023-03-07T16:57:18.220Z,24.74
2023-03-07T16:59:51.060Z,24.81
2023-03-07T17:02:24.425Z,24.71
2023-03-07T17:04:54.398Z,24.78
2023-03-07T17:07:27.779Z,24.73
2023-03-07T17:09:58.535Z,24.86
2023-03-07T17:12:26.527Z,24.83
2023-03-07T17:14:56.804Z,24.91
2023-03-07T17:17:33.821Z,24.91
2023-03-07T17:20:01.451Z,24.98
2023-03-07T17:22:40.238Z,25.00
2023-03-07T17:25:24.745Z,24.88
2023-03-07T17:28:02.795Z,24.97
2023-03-07T17:30:35.983Z,24.81
2023-03-07T17:33:04.470Z,24.64
2023-03-07T17:35:37.000Z,24.62
2023-03-07T17:38:10.727Z,24.60
2023-03-07T17:40:41.385Z,24.70
2023-03-07T17:43:12.304Z,24.70
2023-03-07T17:45:40.376Z,24.66
2023-03-07T17:48:07.637Z,24.70
2023-03-07T17:50:49.933Z,24.71
2023-03-07T17:53:17.608Z,24.75
2023-03-07T17:55:44.946Z,24.73
2023-03-07T17:58:15.030Z,24.78
2023-03-07T18:00:45.587Z,24.74
2023-03-07T18:03:13.267Z,24.60
2023-03-07T18:05:47.115Z,24.71
2023-03-07T18:08:15.552Z,24.69
2023-03-07T18:10:43.481Z,24.62
2023-03-07T18:13:15.350Z,24.57
2023-03-07T18:15:49.063Z,24.51
2023-03-07T18:18:19.488Z,24.73
2023-03-07T18:21:09.286Z,24.59
2023-03-07T18:23:37.434Z,24.58
2023-03-07T18:26:08.871Z,24.54
2023-03-07T18:28:41.357Z,24.44
2023-03-07T18:31:15.311Z,24.33
2023-03-07T18:33:43.677Z,24.29
2023-03-07T18:36:14.709Z,24.16
2023-03-07T18:38:47.805Z,24.17
2023-03-07T18:41:24.128Z,24.11
2023-03-07T18:43:54.591Z,24.09
2023-03-07T18:46:30.667Z,24.05
2023-03-07T18:49:04.207Z,24.10
2023-03-07T18:51:39.603Z,24.03
2023-03-07T18:54:10.396Z,24.04
2023-03-07T18:56:38.652Z,23.98
2023-03-07T18:59:15.211Z,23.99
2023-03-07T19:01:44.548Z,24.01
2023-03-07T19:04:20.271Z,23.99
2023-03-07T19:06:53.895Z,23.95
2023-03-07T19:09:29.082Z,23.99
2023-03-07T19:12:01.461Z,24.02
2023-03-07T19:14:30.065Z,24.01
2023-03-07T19:17:02.526Z,23.91
2023-03-07T19:19:30.548Z,23.94
2023-03-07T19:21:58.247Z,23.96
2023-03-07T19:24:31.776Z,24.01
2023-03-07T19:27:05.204Z,23.98
2023-03-07T19:29:35.203Z,23.97
2023-03-07T19:32:06.145Z,23.96
2023-03-07T19:34:36.799Z,23.98
2023-03-07T19:37:05.832Z,23.97
2023-03-07T19:39:37.231Z,24.02
2023-03-07T19:42:10.992Z,23.98
2023-03-07T19:44:38.948Z,23.99
2023-03-07T19:47:09.643Z,23.95
2023-03-07T19:49:37.857Z,24.04
2023-03-07T19:52:11.171Z,23.96
2023-03-07T19:54:48.950Z,23.95
2023-03-07T19:57:23.784Z,24.00
2023-03-07T19:59:57.486Z,23.99
2023-03-07T20:02:26.349Z,23.95
2023-03-07T20:04:57.861Z,23.95
2023-03-07T20:07:30.180Z,23.91
2023-03-07T20:10:04.086Z,23.82
2023-03-07T20:12:33.335Z,23.83
2023-03-07T20:15:09.003Z,23.86
2023-03-07T20:17:39.392Z,23.79
2023-03-07T20:20:11.049Z,23.76
2023-03-07T20:22:40.506Z,23.80
2023-03-07T20:25:09.639Z,23.73
2023-03-07T20:27:43.136Z,23.71
2023-03-07T20:30:12.467Z,23.70
2023-03-07T20:32:48.462Z,23.68
2023-03-07T20:35:20.402Z,23.68
2023-03-07T20:37:53.357Z,23.66
2023-03-07T20:40:21.785Z,23.66
2023-03-07T20:42:55.130Z,23.65
2023-03-07T20:45:23.532Z,23.66
2023-03-07T20:47:54.742Z,23.65
2023-03-07T20:50:23.141Z,23.64
2023-03-07T20:52:51.980Z,23.63
2023-03-07T20:55:23.560Z,23.62
2023-03-07T20:57:54.765Z,23.61
2023-03-07T21:00:30.066Z,23.61
2023-03-07T21:03:05.733Z,23.64
2023-03-07T21:05:37.852Z,23.67
2023-03-07T21:08:06.479Z,23.66
2023-03-07T21:10:38.956Z,23.65
2023-03-07T21:13:10.113Z,23.69
2023-03-07T21:15:43.608Z,23.69
2023-03-07T21:18:13.937Z,23.70
2023-03-07T21:20:44.210Z,23.69
2023-03-07T21:23:16.911Z,23.68
2023-03-07T21:25:45.988Z,23.67
2023-03-07T21:28:17.403Z,23.66
2023-03-07T21:30:52.245Z,23.70
2023-03-07T21:33:20.640Z,23.68
2023-03-07T21:35:51.132Z,23.70
2023-03-07T21:38:22.074Z,23.68
2023-03-07T21:40:55.998Z,23.63
2023-03-07T21:43:24.686Z,23.68
2023-03-07T21:45:57.252Z,23.65
2023-03-07T21:48:31.053Z,23.64
2023-03-07T21:50:58.636Z,23.63
2023-03-07T21:53:29.711Z,23.61
2023-03-07T21:56:06.582Z,23.61
2023-03-07T21:58:37.678Z,23.61
2023-03-07T22:01:18.604Z,23.62
2023-03-07T22:04:00.708Z,23.62
2023-03-07T22:06:30.770Z,23.71
2023-03-07T22:09:01.465Z,23.61
2023-03-07T22:11:31.247Z,23.53
2023-03-07T22:13:59.901Z,23.52
2023-03-07T22:16:28.829Z,23.52
2023-03-07T22:18:57.075Z,23.54
2023-03-07T22:21:26.715Z,23.48
2023-03-07T22:24:00.825Z,23.50
2023-03-07T22:26:32.053Z,23.49
2023-03-07T22:29:06.407Z,23.43
2023-03-07T22:31:37.983Z,23.39
2023-03-07T22:34:06.056Z,23.41
2023-03-07T22:36:36.545Z,23.41
2023-03-07T22:39:07.505Z,23.40
2023-03-07T22:41:35.964Z,23.40
2023-03-07T22:44:05.579Z,23.38
2023-03-07T22:46:33.944Z,23.39
2023-03-07T22:49:03.839Z,23.42
2023-03-07T22:51:31.973Z,23.40
2023-03-07T22:54:08.878Z,23.39
2023-03-07T22:56:37.127Z,23.39
2023-03-07T22:59:06.168Z,23.39
2023-03-07T23:01:34.187Z,23.37
2023-03-07T23:04:10.356Z,23.37
2023-03-07T23:06:41.438Z,23.37
2023-03-07T23:09:09.837Z,23.38
2023-03-07T23:11:46.492Z,23.43
2023-03-07T23:14:15.315Z,23.41
2023-03-07T23:16:43.597Z,23.36
2023-03-07T23:19:14.168Z,23.37
2023-03-07T23:21:49.898Z,23.42
2023-03-07T23:24:20.237Z,23.47
2023-03-07T23:26:49.220Z,23.53
2023-03-07T23:29:22.735Z,23.48
2023-03-07T23:31:50.967Z,23.44
2023-03-07T23:34:24.566Z,23.42
2023-03-07T23:37:01.094Z,23.40
2023-03-07T23:39:33.851Z,23.38
2023-03-07T23:42:06.357Z,23.38
2023-03-07T23:44:35.008Z,23.37
2023-03-07T23:47:05.853Z,23.34
2023-03-07T23:49:37.163Z,23.33
2023-03-07T23:52:10.330Z,23.38
2023-03-07T23:54:41.775Z,23.36
2023-03-07T23:57:12.800Z,23.32
2023-03-07T23:59:43.868Z,23.27
